< < Back
Terminal Aerodrome Forecast


Current Version              Previous Versions:   1  2  3  4  5  6  7  8  9  

Terminal Aerodrome Forecast

739
FTUS42 KFFC 260941 AAB
TAFAHN
TAF AMD
KAHN 260941Z 2610/2706 28005KT 6SM -RA SCT035 OVC060
      TEMPO 2610/2612 3SM RA BR BKN035 OVC060
     FM261300 29007KT P6SM SCT035 OVC080
     FM261600 28009KT P6SM BKN060
     FM261800 27009KT P6SM SCT060
     FM270400 24006KT P6SM BKN100=



Latest METAR

736
SAUS70 KWBC 261000
MTRAHN
METAR KAHN 260951Z AUTO 28003KT 4SM -RA BR FEW055 OVC070 08/07 A2995 RMK
AO2 SLP143 P0004 T00780067


USA.gov is the U.S. government's official web portal to all federal, state and local government web resources and services.